createdAt,value
2018-12-15T00:00:36.163Z,4.14
2018-12-15T00:01:28.475Z,4.21
2018-12-15T00:02:20.661Z,4.31
2018-12-15T00:03:14.374Z,4.42
2018-12-15T00:04:06.566Z,4.44
2018-12-15T00:04:58.938Z,4.43
2018-12-15T00:05:50.948Z,4.44
2018-12-15T00:06:43.169Z,4.49
2018-12-15T00:07:35.117Z,4.54
2018-12-15T00:08:27.463Z,4.47
2018-12-15T00:09:19.598Z,4.5
2018-12-15T00:10:11.457Z,4.49
2018-12-15T00:11:04.341Z,4.56
2018-12-15T00:11:56.597Z,4.49
2018-12-15T00:12:48.652Z,4.51
2018-12-15T00:13:41.282Z,4.5
2018-12-15T00:14:33.695Z,4.36
2018-12-15T00:15:26.002Z,4.25
2018-12-15T00:16:18.156Z,4.16
2018-12-15T00:17:10.308Z,4.11
2018-12-15T00:19:32.904Z,3.95
2018-12-15T00:20:13.312Z,3.88
2018-12-15T00:20:53.682Z,3.81
2018-12-15T00:21:34.072Z,3.86
2018-12-15T00:22:14.437Z,3.89
2018-12-15T00:22:54.823Z,3.99
2018-12-15T00:23:35.244Z,3.98
2018-12-15T00:24:15.630Z,4.07
2018-12-15T00:24:55.991Z,4.02
2018-12-15T00:25:36.412Z,4.07
2018-12-15T00:26:16.819Z,3.99
2018-12-15T00:26:57.235Z,4
2018-12-15T00:27:37.662Z,4.07
2018-12-15T00:28:18.082Z,4.11
2018-12-15T00:28:58.470Z,4.14
2018-12-15T00:29:38.853Z,4.18
2018-12-15T00:30:19.252Z,4.1
2018-12-15T00:30:59.682Z,4.06
2018-12-15T00:31:40.050Z,3.96
2018-12-15T00:32:20.476Z,3.93
2018-12-15T00:33:00.854Z,3.88
2018-12-15T00:33:41.260Z,3.84
2018-12-15T00:34:21.634Z,3.88
2018-12-15T00:35:02.026Z,3.92
2018-12-15T00:35:42.377Z,3.77
2018-12-15T00:36:22.783Z,3.68
2018-12-15T00:37:03.166Z,3.68
2018-12-15T00:37:43.573Z,3.88
2018-12-15T00:38:23.922Z,3.86
2018-12-15T00:39:04.343Z,3.92
2018-12-15T00:39:44.742Z,3.82
2018-12-15T00:40:25.091Z,3.8
2018-12-15T00:41:06.024Z,3.75
2018-12-15T00:41:46.422Z,3.59
2018-12-15T00:42:26.833Z,3.68
2018-12-15T00:43:07.240Z,3.7
2018-12-15T00:43:47.625Z,3.57
2018-12-15T00:44:27.994Z,3.56
2018-12-15T00:45:08.397Z,3.62
2018-12-15T00:45:48.796Z,3.74
2018-12-15T00:46:29.173Z,3.88
2018-12-15T00:47:13.645Z,3.86
2018-12-15T00:47:49.950Z,3.96
2018-12-15T00:48:30.333Z,4.07
2018-12-15T00:49:10.741Z,4.14
2018-12-15T00:49:51.114Z,4.25
2018-12-15T00:50:31.494Z,4.35
2018-12-15T00:51:11.889Z,4.42
2018-12-15T00:51:52.272Z,4.42
2018-12-15T00:52:32.700Z,4.36
2018-12-15T00:54:30.083Z,4.26
2018-12-15T00:55:10.510Z,4.29
2018-12-15T00:55:50.922Z,4.35
2018-12-15T00:56:31.352Z,4.21
2018-12-15T00:57:11.748Z,4.08
2018-12-15T00:57:52.089Z,4.04
2018-12-15T00:58:32.467Z,4.16
2018-12-15T01:00:19.709Z,4.18
2018-12-15T01:01:00.134Z,4.17
2018-12-15T01:01:40.551Z,4.2
2018-12-15T01:02:20.954Z,4.14
2018-12-15T01:03:01.313Z,4.17
2018-12-15T01:03:41.715Z,4.18
2018-12-15T01:04:22.145Z,4.26
2018-12-15T01:06:19.559Z,4.14
2018-12-15T01:06:59.958Z,4.17
2018-12-15T01:07:40.390Z,4.07
2018-12-15T01:09:27.634Z,4.14
2018-12-15T01:10:08.052Z,4.2
2018-12-15T01:10:48.474Z,4.13
2018-12-15T01:11:28.895Z,4.18
2018-12-15T01:12:09.285Z,4.17
2018-12-15T01:12:49.704Z,4.28
2018-12-15T01:13:30.125Z,4.26
2018-12-15T01:14:10.492Z,4.24
2018-12-15T01:14:50.877Z,4.26
2018-12-15T01:15:31.298Z,4.25
2018-12-15T01:16:11.682Z,4.26
2018-12-15T01:16:52.062Z,4.24
2018-12-15T01:17:32.478Z,4.11
2018-12-15T01:18:12.838Z,4
2018-12-15T01:18:53.225Z,3.95
2018-12-15T01:19:33.600Z,4.04
2018-12-15T01:20:14.019Z,3.84
2018-12-15T01:20:54.392Z,3.8
2018-12-15T01:21:34.787Z,3.78
2018-12-15T01:22:15.175Z,3.81
2018-12-15T01:22:55.575Z,3.8
2018-12-15T01:23:35.991Z,3.8
2018-12-15T01:24:16.422Z,3.78
2018-12-15T01:24:56.835Z,3.86
2018-12-15T01:25:37.183Z,3.95
2018-12-15T01:26:17.588Z,4.07
2018-12-15T01:26:57.978Z,4.06
2018-12-15T01:27:38.406Z,4.02
2018-12-15T01:28:18.824Z,3.98
2018-12-15T01:28:59.221Z,3.99
2018-12-15T01:30:51.559Z,4.13
2018-12-15T01:31:31.937Z,4.16
2018-12-15T01:32:12.320Z,4.31
2018-12-15T01:33:59.551Z,4.13
2018-12-15T01:34:39.980Z,4.08
2018-12-15T01:35:20.400Z,4.06
2018-12-15T01:36:00.829Z,3.96
2018-12-15T01:36:41.200Z,3.89
2018-12-15T01:37:21.608Z,3.82
2018-12-15T01:38:02.042Z,3.78
2018-12-15T01:38:42.436Z,3.62
2018-12-15T01:39:22.836Z,3.67
2018-12-15T01:40:03.222Z,3.62
2018-12-15T01:40:43.636Z,3.8
2018-12-15T01:41:24.013Z,4.04
2018-12-15T01:42:04.390Z,4.04
2018-12-15T01:42:44.796Z,4.17
2018-12-15T01:43:25.211Z,4.1
2018-12-15T01:44:05.594Z,4.13
2018-12-15T01:44:45.994Z,3.95
2018-12-15T01:45:26.384Z,3.82
2018-12-15T01:46:06.748Z,3.63
2018-12-15T01:46:47.145Z,3.57
2018-12-15T01:47:27.518Z,3.6
2018-12-15T01:48:07.903Z,3.46
2018-12-15T01:48:48.303Z,3.56
2018-12-15T01:49:28.701Z,3.54
2018-12-15T01:50:09.090Z,3.57
2018-12-15T01:50:49.462Z,3.37
2018-12-15T01:51:29.856Z,3.35
2018-12-15T01:52:10.230Z,3.42
2018-12-15T01:52:50.687Z,3.44
2018-12-15T01:53:31.068Z,3.39
2018-12-15T01:54:11.459Z,3.39
2018-12-15T01:54:51.884Z,3.41
2018-12-15T01:55:32.301Z,3.37
2018-12-15T01:56:12.719Z,3.37
2018-12-15T01:56:53.163Z,3.41
2018-12-15T01:57:33.480Z,3.39
2018-12-15T01:58:13.872Z,3.26
2018-12-15T01:58:54.278Z,3.33
2018-12-15T01:59:34.668Z,3.33
2018-12-15T02:00:15.040Z,3.33
2018-12-15T02:00:55.419Z,3.35
2018-12-15T02:01:35.793Z,3.28
2018-12-15T02:02:16.176Z,3.37
2018-12-15T02:02:56.559Z,3.41
2018-12-15T02:05:11.176Z,3.37
2018-12-15T02:05:53.544Z,3.25
2018-12-15T02:06:42.799Z,3.13
2018-12-15T02:07:23.152Z,3.19
2018-12-15T02:08:03.486Z,3.2
2018-12-15T02:08:43.895Z,3.13
2018-12-15T02:09:24.279Z,3.19
2018-12-15T02:10:04.671Z,3.22
2018-12-15T02:10:45.380Z,3.13
2018-12-15T02:11:25.748Z,3.12
2018-12-15T02:12:06.404Z,3.12
2018-12-15T02:12:46.841Z,3.19
2018-12-15T02:13:28.173Z,3.26
2018-12-15T02:14:08.535Z,3.22
2018-12-15T02:14:50.012Z,3.25
2018-12-15T02:15:30.467Z,3.33
2018-12-15T02:16:10.816Z,3.44
2018-12-15T02:16:51.155Z,3.39
2018-12-15T02:17:33.712Z,3.35
2018-12-15T02:18:11.965Z,3.57
2018-12-15T02:18:52.360Z,3.54
2018-12-15T02:19:32.815Z,3.54
2018-12-15T02:20:13.111Z,3.56
2018-12-15T02:20:54.443Z,3.57
2018-12-15T02:22:49.477Z,3.77
2018-12-15T02:23:29.887Z,3.77
2018-12-15T02:24:10.286Z,3.71
2018-12-15T02:24:50.680Z,3.68
2018-12-15T02:25:31.096Z,3.6
2018-12-15T02:26:11.520Z,3.75
2018-12-15T02:26:51.946Z,3.84
2018-12-15T02:28:39.365Z,3.88
2018-12-15T02:29:19.780Z,3.93
2018-12-15T02:30:00.189Z,3.84
2018-12-15T02:30:40.615Z,3.78
2018-12-15T02:31:21.008Z,3.8
2018-12-15T02:32:01.374Z,3.95
2018-12-15T02:33:58.600Z,3.57
2018-12-15T02:34:51.897Z,3.42
2018-12-15T02:36:49.117Z,3.42
2018-12-15T02:37:29.588Z,3.6
2018-12-15T02:38:09.943Z,3.67
2018-12-15T02:38:50.338Z,3.86
2018-12-15T02:39:30.727Z,4.1
2018-12-15T02:40:11.117Z,4.31
2018-12-15T02:40:51.501Z,4.32
2018-12-15T02:41:31.877Z,4.44
2018-12-15T02:42:12.272Z,4.35
2018-12-15T02:42:52.669Z,4.38
2018-12-15T02:43:33.057Z,4.29
2018-12-15T02:44:13.430Z,4.38
2018-12-15T02:44:53.826Z,4.32
2018-12-15T02:45:34.239Z,4.26
2018-12-15T02:46:14.630Z,4.06
2018-12-15T02:46:55.014Z,3.98
2018-12-15T02:48:47.356Z,3.96
2018-12-15T02:49:27.753Z,3.77
2018-12-15T02:50:08.180Z,3.59
2018-12-15T02:50:48.599Z,3.54
2018-12-15T02:51:28.964Z,3.45
2018-12-15T02:52:09.368Z,3.3
2018-12-15T02:52:49.731Z,3.31
2018-12-15T02:53:30.143Z,3.41
2018-12-15T02:54:10.584Z,3.31
2018-12-15T02:54:50.991Z,3.19
2018-12-15T02:55:31.364Z,3.22
2018-12-15T02:56:11.772Z,3.3
2018-12-15T02:56:52.145Z,3.39
2018-12-15T02:57:32.531Z,3.28
2018-12-15T02:58:12.928Z,3.41
2018-12-15T02:58:53.281Z,3.46
2018-12-15T02:59:33.702Z,3.84
2018-12-15T03:01:25.659Z,4.35
2018-12-15T03:02:18.171Z,4.24
2018-12-15T03:03:09.778Z,4.42
2018-12-15T03:05:05.484Z,4.39
2018-12-15T03:05:45.933Z,4.53
2018-12-15T03:06:26.303Z,4.39
2018-12-15T03:07:06.714Z,4.31
2018-12-15T03:07:47.122Z,4.26
2018-12-15T03:08:27.491Z,4.21
2018-12-15T03:09:07.875Z,4.17
2018-12-15T03:09:48.270Z,4.13
2018-12-15T03:10:28.699Z,3.99
2018-12-15T03:11:09.936Z,3.92
2018-12-15T03:11:50.308Z,3.77
2018-12-15T03:12:30.707Z,3.77
2018-12-15T03:13:11.083Z,3.81
2018-12-15T03:13:51.498Z,3.78
2018-12-15T03:14:31.887Z,3.78
2018-12-15T03:16:44.454Z,3.78
2018-12-15T03:17:24.842Z,3.81
2018-12-15T03:18:05.277Z,3.81
2018-12-15T03:18:45.606Z,3.63
2018-12-15T03:19:25.997Z,3.64
2018-12-15T03:20:06.419Z,3.62
2018-12-15T03:20:46.769Z,3.57
2018-12-15T03:21:27.162Z,3.56
2018-12-15T03:22:07.546Z,3.44
2018-12-15T03:22:47.921Z,3.56
2018-12-15T03:23:28.328Z,3.45
2018-12-15T03:24:08.708Z,3.37
2018-12-15T03:24:49.098Z,3.33
2018-12-15T03:25:29.516Z,3.37
2018-12-15T03:26:09.950Z,3.5
2018-12-15T03:26:50.343Z,3.44
2018-12-15T03:27:30.728Z,3.57
2018-12-15T03:28:11.082Z,3.57
2018-12-15T03:28:51.463Z,3.56
2018-12-15T03:29:31.842Z,3.37
2018-12-15T03:30:12.228Z,3.31
2018-12-15T03:30:52.591Z,3.44
2018-12-15T03:31:34.430Z,3.34
2018-12-15T03:32:13.409Z,3.52
2018-12-15T03:32:53.813Z,3.56
2018-12-15T03:33:34.210Z,3.53
2018-12-15T03:34:14.648Z,3.57
2018-12-15T03:34:55.034Z,3.56
2018-12-15T03:35:35.417Z,3.68
2018-12-15T03:36:15.836Z,3.67
2018-12-15T03:36:56.212Z,3.78
2018-12-15T03:37:36.607Z,3.8
2018-12-15T03:38:17.035Z,3.8
2018-12-15T03:38:57.468Z,3.75
2018-12-15T03:39:37.849Z,3.77
2018-12-15T03:40:18.233Z,3.81
2018-12-15T03:40:58.619Z,3.93
2018-12-15T03:41:38.998Z,4
2018-12-15T03:42:19.405Z,4.02
2018-12-15T03:42:59.826Z,3.88
2018-12-15T03:43:40.201Z,3.57
2018-12-15T03:44:20.570Z,3.54
2018-12-15T03:45:00.978Z,3.45
2018-12-15T03:45:41.381Z,3.45
2018-12-15T03:46:21.773Z,3.53
2018-12-15T03:47:02.187Z,3.57
2018-12-15T03:47:42.591Z,3.56
2018-12-15T03:48:22.998Z,3.56
2018-12-15T03:49:03.372Z,3.63
2018-12-15T03:49:43.749Z,3.57
2018-12-15T03:50:24.135Z,3.53
2018-12-15T03:51:04.543Z,3.39
2018-12-15T03:51:44.951Z,3.1
2018-12-15T03:52:25.350Z,3.08
2018-12-15T03:53:05.746Z,3.07
2018-12-15T03:53:46.115Z,3.05
2018-12-15T03:54:26.501Z,3.05
2018-12-15T03:55:06.935Z,2.86
2018-12-15T03:55:48.859Z,2.81
2018-12-15T03:56:29.232Z,2.79
2018-12-15T03:57:09.644Z,2.73
2018-12-15T03:57:50.026Z,2.66
2018-12-15T03:58:30.417Z,2.69
2018-12-15T03:59:10.839Z,2.65
2018-12-15T03:59:51.232Z,2.76
2018-12-15T04:00:31.607Z,2.63
2018-12-15T04:01:12.002Z,2.8
2018-12-15T04:01:52.435Z,2.84
2018-12-15T04:02:32.803Z,2.86
2018-12-15T04:03:13.247Z,2.95
2018-12-15T04:03:53.690Z,3.04
2018-12-15T04:04:34.034Z,3.01
2018-12-15T04:05:14.404Z,3.02
2018-12-15T04:05:54.764Z,2.97
2018-12-15T04:06:35.180Z,3.08
2018-12-15T04:07:15.570Z,3.12
2018-12-15T04:07:55.972Z,3.19
2018-12-15T04:08:36.360Z,3.12
2018-12-15T04:09:16.760Z,3.15
2018-12-15T04:09:57.158Z,3.13
2018-12-15T04:10:37.524Z,3.2
2018-12-15T04:11:17.910Z,3.31
2018-12-15T04:11:58.322Z,3.23
2018-12-15T04:12:38.711Z,3.23
2018-12-15T04:13:19.143Z,3.34
2018-12-15T04:13:59.515Z,3.28
2018-12-15T04:16:11.965Z,3.42
2018-12-15T04:16:52.387Z,3.37
2018-12-15T04:17:32.782Z,3.34
2018-12-15T04:18:13.214Z,3.34
2018-12-15T04:18:53.629Z,3.5
2018-12-15T04:19:34.038Z,3.35
2018-12-15T04:20:14.411Z,3.41
2018-12-15T04:20:54.828Z,3.37
2018-12-15T04:21:35.213Z,3.45
2018-12-15T04:22:15.587Z,3.49
2018-12-15T04:22:55.982Z,3.26
2018-12-15T04:23:36.363Z,3.37
2018-12-15T04:24:16.768Z,3.3
2018-12-15T04:24:57.184Z,3.34
2018-12-15T04:25:37.575Z,3.34
2018-12-15T04:26:17.972Z,3.42
2018-12-15T04:26:58.347Z,3.53
2018-12-15T04:27:38.753Z,3.45
2018-12-15T04:28:19.160Z,3.52
2018-12-15T04:28:59.533Z,3.6
2018-12-15T05:09:29.470Z,2.94
2018-12-15T05:10:09.894Z,2.97
2018-12-15T05:10:50.340Z,2.99
2018-12-15T05:11:30.740Z,3.02
2018-12-15T05:12:11.135Z,3.05
2018-12-15T05:12:51.535Z,2.99
2018-12-15T05:13:31.967Z,2.99
2018-12-15T05:14:12.380Z,2.97
2018-12-15T05:14:52.781Z,2.99
2018-12-15T05:15:33.158Z,2.97
2018-12-15T05:16:13.569Z,2.95
2018-12-15T05:16:53.952Z,2.95
2018-12-15T05:17:34.353Z,2.97
2018-12-15T05:18:18.117Z,3.07
2018-12-15T05:18:55.177Z,3.13
2018-12-15T05:19:35.598Z,3.19
2018-12-15T05:20:16.021Z,3.23
2018-12-15T05:20:56.428Z,3.23
2018-12-15T05:21:36.821Z,3.25
2018-12-15T05:22:17.223Z,3.42
2018-12-15T05:22:57.676Z,3.34
2018-12-15T05:23:38.075Z,3.41
2018-12-15T05:24:18.504Z,3.54
2018-12-15T05:24:58.923Z,3.62
2018-12-15T05:27:11.631Z,3.78
2018-12-15T05:27:52.034Z,3.81
2018-12-15T05:28:32.471Z,3.82
2018-12-15T05:29:12.904Z,3.86
2018-12-15T05:29:53.316Z,3.88
2018-12-15T05:30:33.740Z,3.86
2018-12-15T05:31:14.164Z,3.78
2018-12-15T05:31:54.579Z,3.75
2018-12-15T05:32:34.991Z,3.72
2018-12-15T05:33:15.417Z,3.81
2018-12-15T05:35:02.665Z,3.81
2018-12-15T05:35:43.084Z,3.89
2018-12-15T05:36:23.484Z,3.95
2018-12-15T05:37:03.882Z,3.92
2018-12-15T05:37:44.324Z,3.9
2018-12-15T05:38:24.693Z,3.95
2018-12-15T05:40:37.163Z,4.29
2018-12-15T05:41:17.585Z,4.28
2018-12-15T05:41:57.999Z,4.39
2018-12-15T05:42:38.427Z,4.38
2018-12-15T05:43:18.819Z,4.43
2018-12-15T05:43:59.219Z,4.35
2018-12-15T05:44:39.628Z,4.46
2018-12-15T05:45:20.048Z,4.49
2018-12-15T05:46:00.461Z,4.62
2018-12-15T05:46:40.845Z,4.75
2018-12-15T05:47:21.227Z,4.79
2018-12-15T05:48:01.602Z,4.8
2018-12-15T05:48:41.994Z,4.91
2018-12-15T05:49:22.383Z,5.08
2018-12-15T05:50:02.813Z,4.97
2018-12-15T05:50:43.240Z,5.09
2018-12-15T05:51:23.620Z,5.08
2018-12-15T05:52:04.053Z,5.09
2018-12-15T05:52:44.490Z,5.15
2018-12-15T05:53:24.909Z,5.27
2018-12-15T05:54:05.299Z,5.23
2018-12-15T05:55:52.538Z,5.35
2018-12-15T05:56:32.959Z,5.37
2018-12-15T05:57:13.395Z,5.29
2018-12-15T05:57:53.817Z,5.26
2018-12-15T05:58:34.242Z,5.29
2018-12-15T05:59:14.668Z,5.19
2018-12-15T05:59:55.096Z,5.23
2018-12-15T06:00:35.533Z,5.17
2018-12-15T06:01:15.945Z,5.2
2018-12-15T06:01:56.381Z,5.05
2018-12-15T06:02:36.787Z,5.04
2018-12-15T06:03:17.193Z,4.87
2018-12-15T06:03:57.580Z,4.77
2018-12-15T06:04:37.963Z,4.59
2018-12-15T06:05:18.336Z,4.46
2018-12-15T06:05:58.709Z,4.31
2018-12-15T06:06:39.103Z,4.11
2018-12-15T06:07:19.484Z,4.02
2018-12-15T06:09:19.054Z,3.96
2018-12-15T06:10:02.972Z,3.98
2018-12-15T06:10:43.372Z,4
2018-12-15T06:11:42.376Z,4
2018-12-15T06:12:22.763Z,4.02
2018-12-15T06:13:03.154Z,4.02
2018-12-15T06:13:43.671Z,4.14
2018-12-15T06:14:23.965Z,4.13
2018-12-15T06:15:04.395Z,4.08
2018-12-15T06:15:44.762Z,4.11
2018-12-15T06:16:25.121Z,4.02
2018-12-15T06:17:05.469Z,3.9
2018-12-15T06:17:45.906Z,3.81
2018-12-15T06:18:31.547Z,3.62
2018-12-15T06:19:08.426Z,3.52
2018-12-15T06:19:51.346Z,3.34
2018-12-15T06:20:31.721Z,3.12
2018-12-15T06:21:12.074Z,2.94
2018-12-15T06:21:54.854Z,2.86
2018-12-15T06:22:35.040Z,2.79
2018-12-15T06:23:15.414Z,2.73
2018-12-15T06:23:57.501Z,2.65
2018-12-15T06:24:37.964Z,2.62
2018-12-15T06:25:19.255Z,2.61
2018-12-15T06:26:01.366Z,2.71
2018-12-15T06:26:42.683Z,2.74
2018-12-15T06:28:59.833Z,2.65
2018-12-15T06:29:48.064Z,2.71
2018-12-15T06:31:38.035Z,2.73
2018-12-15T06:32:18.337Z,2.68
2018-12-15T06:32:58.725Z,2.74
2018-12-15T06:33:39.410Z,2.63
2018-12-15T06:34:19.838Z,2.59
2018-12-15T06:35:00.197Z,2.69
2018-12-15T06:35:40.614Z,2.73
2018-12-15T06:36:21.002Z,2.74
2018-12-15T06:37:01.421Z,2.8
2018-12-15T06:37:41.762Z,2.81
2018-12-15T06:38:22.159Z,2.81
2018-12-15T06:39:02.557Z,2.86
2018-12-15T06:39:42.955Z,2.95
2018-12-15T06:40:23.328Z,3.02
2018-12-15T06:41:03.722Z,3.05
2018-12-15T06:41:44.122Z,3.16
2018-12-15T06:42:24.486Z,3.2
2018-12-15T06:43:04.875Z,3.23
2018-12-15T06:43:45.275Z,3.23
2018-12-15T06:45:40.754Z,3.23
2018-12-15T06:46:29.011Z,3.13
2018-12-15T06:47:08.646Z,3.12
2018-12-15T06:47:49.091Z,3.15
2018-12-15T06:48:29.492Z,3.1
2018-12-15T06:49:09.921Z,3.13
2018-12-15T06:49:50.224Z,3.16
2018-12-15T06:50:30.624Z,3.22
2018-12-15T06:51:11.020Z,3.23
2018-12-15T06:51:51.396Z,3.22
2018-12-15T06:52:31.763Z,3.1
2018-12-15T06:53:12.166Z,3.02
2018-12-15T06:53:52.556Z,2.9
2018-12-15T06:54:32.958Z,2.79
2018-12-15T06:55:13.354Z,2.73
2018-12-15T06:55:53.769Z,2.73
2018-12-15T06:56:34.212Z,2.73
2018-12-15T06:57:14.575Z,2.71
2018-12-15T06:57:54.960Z,2.66
2018-12-15T06:58:35.330Z,2.73
2018-12-15T06:59:15.761Z,2.92
2018-12-15T06:59:59.386Z,2.81
2018-12-15T07:00:39.867Z,2.79
2018-12-15T07:01:20.264Z,2.76
2018-12-15T07:02:01.245Z,2.65
2018-12-15T07:02:41.620Z,2.68
2018-12-15T07:03:22.025Z,2.66
2018-12-15T07:04:02.389Z,2.63
2018-12-15T07:04:42.760Z,2.66
2018-12-15T07:05:23.139Z,2.71
2018-12-15T07:06:03.575Z,2.76
2018-12-15T07:06:44.027Z,2.79
2018-12-15T07:07:25.447Z,2.8
2018-12-15T07:08:05.865Z,2.84
2018-12-15T07:08:46.257Z,2.86
2018-12-15T07:09:26.627Z,2.95
2018-12-15T07:10:07.118Z,2.97
2018-12-15T07:10:47.495Z,2.94
2018-12-15T07:11:27.856Z,2.97
2018-12-15T07:12:08.262Z,2.98
2018-12-15T07:12:48.688Z,3.07
2018-12-15T07:13:29.047Z,2.97
2018-12-15T07:14:09.530Z,3.2
2018-12-15T07:14:50.714Z,3.15
2018-12-15T07:15:31.090Z,3.17
2018-12-15T07:16:11.543Z,3.2
2018-12-15T07:16:51.944Z,3.08
2018-12-15T07:17:32.273Z,3.08
2018-12-15T07:18:12.736Z,3.01
2018-12-15T07:18:53.160Z,2.98
2018-12-15T07:19:33.528Z,2.98
2018-12-15T07:20:13.978Z,2.98
2018-12-15T07:20:54.363Z,2.99
2018-12-15T07:21:34.773Z,3.08
2018-12-15T07:22:15.113Z,2.97
2018-12-15T07:22:55.579Z,2.94
2018-12-15T07:23:35.948Z,2.99
2018-12-15T07:24:16.335Z,2.87
2018-12-15T07:24:56.728Z,2.95
2018-12-15T07:25:37.032Z,3.07
2018-12-15T07:26:17.517Z,2.98
2018-12-15T07:26:57.929Z,3.02
2018-12-15T07:27:38.271Z,2.97
2018-12-15T07:28:18.696Z,2.89
2018-12-15T07:28:59.093Z,2.86
2018-12-15T07:29:39.512Z,2.8
2018-12-15T07:30:19.927Z,2.74
2018-12-15T07:31:00.359Z,2.73
2018-12-15T07:31:40.929Z,2.9
2018-12-15T07:32:21.787Z,3.08
2018-12-15T07:33:02.398Z,3.2
2018-12-15T07:33:42.860Z,3.2
2018-12-15T07:34:24.149Z,3.15
2018-12-15T07:35:05.451Z,3.08
2018-12-15T07:35:45.160Z,3.04
2018-12-15T07:36:25.501Z,2.92
2018-12-15T07:37:05.900Z,2.89
2018-12-15T07:37:46.593Z,2.99
2018-12-15T07:38:27.159Z,2.86
2018-12-15T07:39:07.562Z,3.01
2018-12-15T07:39:48.045Z,2.89
2018-12-15T07:40:28.528Z,2.99
2018-12-15T07:41:09.023Z,2.81
2018-12-15T07:41:49.385Z,2.89
2018-12-15T07:42:31.158Z,2.9
2018-12-15T07:43:11.656Z,2.86
2018-12-15T07:43:52.086Z,2.83
2018-12-15T07:44:33.105Z,3.01
2018-12-15T07:45:13.600Z,3.1
2018-12-15T07:45:53.897Z,3.1
2018-12-15T07:46:34.387Z,2.94
2018-12-15T07:47:15.385Z,2.99
2018-12-15T07:47:55.903Z,2.86
2018-12-15T07:48:36.158Z,2.83
2018-12-15T07:49:16.626Z,2.83
2018-12-15T07:49:57.164Z,2.84
2018-12-15T07:50:37.670Z,2.8
2018-12-15T07:51:18.454Z,2.76
2018-12-15T07:51:58.736Z,2.73
2018-12-15T07:52:39.162Z,2.69
2018-12-15T07:53:19.509Z,2.8
2018-12-15T07:54:00.121Z,2.97
2018-12-15T07:54:40.836Z,3.1
2018-12-15T07:55:21.080Z,3.19
2018-12-15T07:56:01.529Z,3.33
2018-12-15T07:56:42.342Z,3.35
2018-12-15T07:57:23.240Z,3.42
2018-12-15T07:58:03.353Z,3.22
2018-12-15T07:58:45.715Z,3.12
2018-12-15T07:59:26.292Z,2.95
2018-12-15T08:00:06.941Z,2.92
2018-12-15T08:00:47.901Z,2.9
2018-12-15T08:01:28.511Z,2.81
2018-12-15T08:02:09.239Z,2.76
2018-12-15T08:02:49.640Z,2.76
2018-12-15T08:03:30.662Z,2.69
2018-12-15T08:04:11.543Z,2.68
2018-12-15T08:04:51.589Z,2.59
2018-12-15T08:05:32.461Z,2.48
2018-12-15T08:06:13.188Z,2.51
2018-12-15T08:06:53.538Z,2.43
2018-12-15T08:07:34.059Z,2.38
2018-12-15T08:08:14.587Z,2.4
2018-12-15T08:08:54.879Z,2.4
2018-12-15T08:09:35.187Z,2.41
2018-12-15T08:10:17.359Z,2.45
2018-12-15T08:10:58.338Z,2.43
2018-12-15T08:11:38.564Z,2.4
2018-12-15T08:12:19.013Z,2.4
2018-12-15T08:12:59.969Z,2.33
2018-12-15T08:13:40.300Z,2.37
2018-12-15T08:14:21.193Z,2.27
2018-12-15T08:15:02.581Z,2.3
2018-12-15T08:15:43.498Z,2.37
2018-12-15T08:16:24.091Z,2.4
2018-12-15T08:17:04.781Z,2.53
2018-12-15T08:17:45.721Z,2.47
2018-12-15T08:18:26.791Z,2.61
2018-12-15T08:19:07.548Z,2.51
2018-12-15T08:19:47.977Z,2.61
2018-12-15T08:20:28.538Z,2.61
2018-12-15T08:21:09.079Z,2.68
2018-12-15T08:21:49.802Z,2.65
2018-12-15T08:22:32.552Z,2.77
2018-12-15T08:23:16.147Z,2.9
2018-12-15T08:23:56.747Z,2.92
2018-12-15T08:24:36.971Z,3.02
2018-12-15T08:25:17.571Z,3.19
2018-12-15T08:25:57.948Z,3.22
2018-12-15T08:26:38.719Z,3.3
2018-12-15T08:27:19.343Z,3.33
2018-12-15T08:27:59.791Z,3.41
2018-12-15T08:28:40.371Z,3.31
2018-12-15T08:29:20.668Z,3.31
2018-12-15T08:30:01.221Z,3.39
2018-12-15T08:30:41.630Z,3.44
2018-12-15T08:31:22.690Z,3.42
2018-12-15T08:32:03.084Z,3.37
2018-12-15T08:32:43.759Z,3.26
2018-12-15T08:33:24.463Z,3.15
2018-12-15T08:34:06.297Z,3.12
2018-12-15T08:34:47.203Z,3.04
2018-12-15T08:35:27.647Z,2.92
2018-12-15T08:36:08.174Z,3.02
2018-12-15T08:36:48.825Z,3.12
2018-12-15T08:37:29.339Z,3.1
2018-12-15T08:38:09.779Z,3.07
2018-12-15T08:38:50.740Z,3.07
2018-12-15T08:39:31.889Z,2.97
2018-12-15T08:40:12.390Z,3.01
2018-12-15T08:40:55.405Z,2.97
2018-12-15T08:41:37.341Z,2.92
2018-12-15T08:42:20.218Z,2.94
2018-12-15T08:43:00.983Z,2.94
2018-12-15T08:43:44.010Z,2.98
2018-12-15T08:44:24.663Z,2.97
2018-12-15T08:45:05.095Z,2.94
2018-12-15T08:45:45.548Z,2.99
2018-12-15T08:46:26.015Z,3.08
2018-12-15T08:47:06.373Z,3.1
2018-12-15T08:47:46.779Z,3.08
2018-12-15T08:48:27.888Z,2.99
2018-12-15T08:49:09.042Z,3.1
2018-12-15T08:49:49.664Z,3.12
2018-12-15T08:50:30.208Z,3.13
2018-12-15T08:51:10.493Z,3.08
2018-12-15T08:51:50.910Z,3.23
2018-12-15T08:52:31.540Z,3.19
2018-12-15T08:53:12.134Z,3.22
2018-12-15T08:53:53.908Z,3.15
2018-12-15T08:54:34.424Z,3.19
2018-12-15T08:55:14.996Z,3.22
2018-12-15T08:55:55.677Z,3.17
2018-12-15T08:56:36.227Z,3.13
2018-12-15T08:57:16.625Z,3.25
2018-12-15T08:57:57.259Z,3.35
2018-12-15T08:58:37.685Z,3.34
2018-12-15T08:59:18.640Z,3.44
2018-12-15T08:59:59.399Z,3.44
2018-12-15T09:00:39.896Z,3.5
2018-12-15T09:01:20.369Z,3.35
2018-12-15T09:02:01.188Z,3.39
2018-12-15T09:02:41.591Z,3.31
2018-12-15T09:03:22.382Z,3.39
2018-12-15T09:04:03.417Z,3.39
2018-12-15T09:04:44.096Z,3.37
2018-12-15T09:05:33.100Z,3.39
2018-12-15T09:07:20.138Z,3.28
2018-12-15T09:08:13.125Z,3.35
2018-12-15T09:09:05.633Z,3.17
2018-12-15T09:09:58.374Z,3.16
2018-12-15T09:10:50.698Z,3.2
2018-12-15T09:11:43.728Z,3.1
2018-12-15T09:12:35.842Z,3.02
2018-12-15T09:13:28.785Z,2.92
2018-12-15T09:14:29.846Z,2.79
2018-12-15T09:15:22.608Z,2.66
2018-12-15T09:16:14.588Z,2.68
2018-12-15T09:17:06.974Z,2.66
2018-12-15T09:17:59.116Z,2.66
2018-12-15T09:18:51.217Z,2.68
2018-12-15T09:19:43.215Z,2.65
2018-12-15T09:20:35.736Z,2.69
2018-12-15T09:21:29.150Z,2.83
2018-12-15T09:22:21.922Z,2.92
2018-12-15T09:23:14.381Z,2.95
2018-12-15T09:24:07.254Z,2.97
2018-12-15T09:24:59.707Z,2.99
2018-12-15T09:25:55.049Z,2.9
2018-12-15T09:26:47.567Z,2.87
2018-12-15T09:27:41.167Z,2.95
2018-12-15T09:28:33.610Z,2.94
2018-12-15T09:29:26.038Z,2.92
2018-12-15T09:30:18.246Z,2.94
2018-12-15T09:31:11.614Z,2.95
2018-12-15T09:32:05.136Z,2.77
2018-12-15T09:32:58.598Z,2.83
2018-12-15T09:33:53.056Z,2.73
2018-12-15T09:34:46.315Z,2.61
2018-12-15T09:35:37.987Z,2.68
2018-12-15T09:36:31.131Z,2.74
2018-12-15T09:37:25.208Z,2.74
2018-12-15T09:38:19.119Z,2.71
2018-12-15T09:39:09.804Z,2.68
2018-12-15T09:39:50.168Z,2.69
2018-12-15T09:40:31.567Z,2.69
2018-12-15T09:41:12.569Z,2.62
2018-12-15T09:41:52.764Z,2.73
2018-12-15T09:42:33.274Z,2.74
2018-12-15T09:43:14.364Z,2.77
2018-12-15T09:43:55.428Z,2.68
2018-12-15T09:44:36.013Z,2.73
2018-12-15T09:45:16.280Z,2.81
2018-12-15T09:45:57.514Z,2.71
2018-12-15T09:46:38.245Z,2.74
2018-12-15T09:47:18.967Z,2.62
2018-12-15T09:47:59.124Z,2.8
2018-12-15T09:48:39.734Z,2.77
2018-12-15T09:49:23.063Z,2.62
2018-12-15T09:50:03.687Z,2.69
2018-12-15T09:50:44.533Z,2.66
2018-12-15T09:51:24.800Z,2.86
2018-12-15T09:52:05.670Z,2.86
2018-12-15T09:52:46.909Z,2.89
2018-12-15T09:53:27.278Z,2.92
2018-12-15T09:54:07.840Z,2.86
2018-12-15T09:54:48.169Z,2.92
2018-12-15T09:55:28.932Z,2.83
2018-12-15T09:56:10.225Z,2.76
2018-12-15T09:56:50.814Z,2.76
2018-12-15T09:57:31.667Z,2.92
2018-12-15T09:58:12.037Z,2.9
2018-12-15T09:58:52.428Z,2.92
2018-12-15T09:59:33.135Z,2.95
2018-12-15T10:00:13.560Z,2.89
2018-12-15T10:00:54.132Z,2.81
2018-12-15T10:01:34.791Z,2.94
2018-12-15T10:02:16.204Z,2.94
2018-12-15T10:02:57.321Z,2.97
2018-12-15T10:03:38.408Z,2.84
2018-12-15T10:04:19.113Z,2.94
2018-12-15T10:04:59.720Z,2.95
2018-12-15T10:05:43.600Z,2.95
2018-12-15T10:06:24.834Z,3.02
2018-12-15T10:07:05.515Z,3.12
2018-12-15T10:07:47.949Z,2.99
2018-12-15T10:08:29.018Z,2.98
2018-12-15T10:09:09.459Z,2.97
2018-12-15T10:09:50.364Z,2.89
2018-12-15T10:10:30.345Z,2.87
2018-12-15T10:11:11.054Z,2.87
2018-12-15T10:11:51.527Z,2.86
2018-12-15T10:12:33.410Z,2.9
2018-12-15T10:13:14.457Z,2.86
2018-12-15T10:13:56.109Z,2.99
2018-12-15T10:14:37.311Z,3.07
2018-12-15T10:15:18.346Z,3.19
2018-12-15T10:15:58.611Z,3.16
2018-12-15T10:16:39.305Z,3.23
2018-12-15T10:17:21.732Z,3.33
2018-12-15T10:18:02.397Z,3.35
2018-12-15T10:18:44.297Z,3.39
2018-12-15T10:19:26.239Z,3.5
2018-12-15T10:20:06.715Z,3.56
2018-12-15T10:20:47.672Z,3.57
2018-12-15T10:21:28.389Z,3.64
2018-12-15T10:22:09.658Z,3.77
2018-12-15T10:22:51.281Z,3.78
2018-12-15T10:23:32.385Z,3.78
2018-12-15T10:24:13.560Z,3.82
2018-12-15T10:24:54.783Z,3.84
2018-12-15T10:25:34.826Z,3.82
2018-12-15T10:26:44.656Z,3.74
2018-12-15T10:27:33.580Z,3.67
2018-12-15T10:28:14.694Z,3.6
2018-12-15T10:28:55.399Z,3.52